createdAt,value
2022-12-24T00:00:22.552Z,48.80
2022-12-24T00:01:25.017Z,48.90
2022-12-24T00:02:27.610Z,48.80
2022-12-24T00:03:30.313Z,48.90
2022-12-24T00:04:34.005Z,48.80
2022-12-24T00:05:38.008Z,48.80
2022-12-24T00:06:41.238Z,48.80
2022-12-24T00:07:44.136Z,48.80
2022-12-24T00:08:46.754Z,48.80
2022-12-24T00:09:49.247Z,48.80
2022-12-24T00:10:52.801Z,48.80
2022-12-24T00:11:55.239Z,48.80
2022-12-24T00:12:57.701Z,48.80
2022-12-24T00:14:02.185Z,48.80
2022-12-24T00:15:06.281Z,48.80
2022-12-24T00:16:08.680Z,48.80
2022-12-24T00:17:11.167Z,48.80
2022-12-24T00:18:15.535Z,48.80
2022-12-24T00:19:18.227Z,48.80
2022-12-24T00:20:21.099Z,48.80
2022-12-24T00:21:24.147Z,48.80
2022-12-24T00:22:26.589Z,48.70
2022-12-24T00:23:29.014Z,48.70
2022-12-24T00:24:31.541Z,48.70
2022-12-24T00:25:35.466Z,48.70
2022-12-24T00:26:38.332Z,48.70
2022-12-24T00:27:40.837Z,49.20
2022-12-24T00:28:43.383Z,48.70
2022-12-24T00:29:46.149Z,48.60
2022-12-24T00:30:51.057Z,48.70
2022-12-24T00:31:53.502Z,48.60
2022-12-24T00:32:56.037Z,48.60
2022-12-24T00:33:58.697Z,48.70
2022-12-24T00:35:01.152Z,48.60
2022-12-24T00:36:03.731Z,48.60
2022-12-24T00:37:07.633Z,48.60
2022-12-24T00:38:10.471Z,48.60
2022-12-24T00:39:13.986Z,48.50
2022-12-24T00:40:18.332Z,48.60
2022-12-24T00:41:29.195Z,48.50
2022-12-24T00:42:33.314Z,48.60
2022-12-24T00:43:35.745Z,48.60
2022-12-24T00:44:38.297Z,48.60
2022-12-24T00:45:42.061Z,48.60
2022-12-24T00:46:44.716Z,48.50
2022-12-24T00:47:47.228Z,48.50
2022-12-24T00:48:50.768Z,48.50
2022-12-24T00:49:54.301Z,48.50
2022-12-24T00:50:56.856Z,48.50
2022-12-24T00:51:59.673Z,48.60
2022-12-24T00:53:02.117Z,48.50
2022-12-24T00:54:05.643Z,48.50
2022-12-24T00:55:08.735Z,48.40
2022-12-24T00:56:11.326Z,48.40
2022-12-24T00:57:15.211Z,48.50
2022-12-24T00:58:18.573Z,48.50
2022-12-24T00:59:22.013Z,48.40
2022-12-24T01:00:24.561Z,48.50
2022-12-24T01:01:27.874Z,48.50
2022-12-24T01:02:31.012Z,48.40
2022-12-24T01:03:36.841Z,48.50
2022-12-24T01:04:57.715Z,48.40
2022-12-24T01:06:00.569Z,48.50
2022-12-24T01:07:03.067Z,48.40
2022-12-24T01:08:05.746Z,48.40
2022-12-24T01:09:09.894Z,48.40
2022-12-24T01:10:14.667Z,48.40
2022-12-24T01:11:17.382Z,48.40
2022-12-24T01:12:20.710Z,48.40
2022-12-24T01:13:26.405Z,48.40
2022-12-24T01:14:28.816Z,48.30
2022-12-24T01:15:31.397Z,48.30
2022-12-24T01:16:34.008Z,48.40
2022-12-24T01:17:36.966Z,48.40
2022-12-24T01:18:39.420Z,48.30
2022-12-24T01:19:41.897Z,48.30
2022-12-24T01:20:44.910Z,48.30
2022-12-24T01:21:47.461Z,48.30
2022-12-24T01:22:51.312Z,48.30
2022-12-24T01:23:54.945Z,48.30
2022-12-24T01:24:57.837Z,48.30
2022-12-24T01:26:03.175Z,48.30
2022-12-24T01:27:09.685Z,48.30
2022-12-24T01:28:12.599Z,48.30
2022-12-24T01:29:16.075Z,48.30
2022-12-24T01:30:18.556Z,48.30
2022-12-24T01:31:21.168Z,48.30
2022-12-24T01:32:23.722Z,48.30
2022-12-24T01:33:44.740Z,48.30
2022-12-24T01:34:47.159Z,48.20
2022-12-24T01:35:49.721Z,48.20
2022-12-24T01:36:52.515Z,48.30
2022-12-24T01:37:56.356Z,48.30
2022-12-24T01:38:58.902Z,48.20
2022-12-24T01:40:19.961Z,48.20
2022-12-24T01:41:42.365Z,48.20
2022-12-24T01:43:06.799Z,48.20
2022-12-24T01:44:33.167Z,48.20
2022-12-24T01:45:47.230Z,48.20
2022-12-24T01:46:56.487Z,48.20
2022-12-24T01:47:59.452Z,48.80
2022-12-24T01:49:06.645Z,48.20
2022-12-24T01:50:17.879Z,48.20
2022-12-24T01:51:26.540Z,48.10
2022-12-24T01:52:33.282Z,48.10
2022-12-24T01:53:39.316Z,48.20
2022-12-24T01:55:00.982Z,48.10
2022-12-24T01:56:06.619Z,48.10
2022-12-24T01:57:14.516Z,48.10
2022-12-24T01:58:19.599Z,48.10
2022-12-24T01:59:22.535Z,48.10
2022-12-24T02:00:25.072Z,48.10
2022-12-24T02:01:27.669Z,48.10
2022-12-24T02:02:30.624Z,48.10
2022-12-24T02:03:33.701Z,48.10
2022-12-24T02:04:56.407Z,48.10
2022-12-24T02:06:00.762Z,48.10
2022-12-24T02:07:03.189Z,48.20
2022-12-24T02:08:06.163Z,48.10
2022-12-24T02:09:08.808Z,48.00
2022-12-24T02:10:15.435Z,48.10
2022-12-24T02:11:20.615Z,48.00
2022-12-24T02:12:31.586Z,48.00
2022-12-24T02:13:34.046Z,48.00
2022-12-24T02:14:36.970Z,48.10
2022-12-24T02:16:04.778Z,48.00
2022-12-24T02:17:44.007Z,48.60
2022-12-24T02:19:02.682Z,48.00
2022-12-24T02:20:42.017Z,48.00
2022-12-24T02:21:53.773Z,48.00
2022-12-24T02:23:40.408Z,48.00
2022-12-24T02:25:06.226Z,48.00
2022-12-24T02:26:23.724Z,48.00
2022-12-24T02:27:43.909Z,48.00
2022-12-24T02:29:44.087Z,48.00
2022-12-24T02:30:51.353Z,47.90
2022-12-24T02:32:05.019Z,48.00
2022-12-24T02:33:24.527Z,47.90
2022-12-24T02:34:49.761Z,47.90
2022-12-24T02:36:03.690Z,48.00
2022-12-24T02:37:30.695Z,47.90
2022-12-24T02:38:42.159Z,47.90
2022-12-24T02:39:52.916Z,47.90
2022-12-24T02:41:04.375Z,47.90
2022-12-24T02:42:10.498Z,47.90
2022-12-24T02:43:23.120Z,47.90
2022-12-24T02:44:29.033Z,47.80
2022-12-24T02:45:35.351Z,47.90
2022-12-24T02:46:37.990Z,47.90
2022-12-24T02:47:43.798Z,47.80
2022-12-24T02:48:48.701Z,47.80
2022-12-24T02:49:52.554Z,47.80
2022-12-24T02:51:03.107Z,47.80
2022-12-24T02:52:05.850Z,47.80
2022-12-24T02:53:10.834Z,47.80
2022-12-24T02:54:14.718Z,47.80
2022-12-24T02:55:39.376Z,47.80
2022-12-24T02:57:06.753Z,47.80
2022-12-24T02:58:38.680Z,47.80
2022-12-24T03:00:15.358Z,47.70
2022-12-24T03:01:50.524Z,47.70
2022-12-24T03:03:17.299Z,47.70
2022-12-24T03:04:42.550Z,47.70
2022-12-24T03:06:14.454Z,47.70
2022-12-24T03:07:29.003Z,47.70
2022-12-24T03:08:54.586Z,47.70
2022-12-24T03:10:24.243Z,47.70
2022-12-24T03:11:27.884Z,47.60
2022-12-24T03:12:39.297Z,47.60
2022-12-24T03:13:43.884Z,47.60
2022-12-24T03:14:48.617Z,47.60
2022-12-24T03:15:52.363Z,47.60
2022-12-24T03:16:56.940Z,47.60
2022-12-24T03:18:02.323Z,47.60
2022-12-24T03:19:05.928Z,47.60
2022-12-24T03:20:10.838Z,47.50
2022-12-24T03:21:20.264Z,47.50
2022-12-24T03:22:23.695Z,47.50
2022-12-24T03:23:26.349Z,47.60
2022-12-24T03:24:29.133Z,47.60
2022-12-24T03:25:33.575Z,47.60
2022-12-24T03:26:37.006Z,47.50
2022-12-24T03:27:41.996Z,47.60
2022-12-24T03:28:45.702Z,47.50
2022-12-24T03:29:48.369Z,47.50
2022-12-24T03:30:51.289Z,47.50
2022-12-24T03:32:01.186Z,47.40
2022-12-24T03:33:03.896Z,47.40
2022-12-24T03:34:06.415Z,47.50
2022-12-24T03:35:09.465Z,47.50
2022-12-24T03:36:12.617Z,47.50
2022-12-24T03:37:15.411Z,47.40
2022-12-24T03:38:17.992Z,47.50
2022-12-24T03:39:20.511Z,47.50
2022-12-24T03:40:22.997Z,47.40
2022-12-24T03:41:25.459Z,47.40
2022-12-24T03:42:27.945Z,47.30
2022-12-24T03:43:31.818Z,47.30
2022-12-24T03:44:35.712Z,47.30
2022-12-24T03:45:38.533Z,47.30
2022-12-24T03:46:41.145Z,47.30
2022-12-24T03:47:43.739Z,47.30
2022-12-24T03:48:46.674Z,47.30
2022-12-24T03:49:49.476Z,47.30
2022-12-24T03:50:51.967Z,47.30
2022-12-24T03:51:54.481Z,47.30
2022-12-24T03:52:57.053Z,47.30
2022-12-24T03:54:00.271Z,47.20
2022-12-24T03:55:05.251Z,47.30
2022-12-24T03:56:08.159Z,47.20
2022-12-24T03:57:10.717Z,47.20
2022-12-24T03:58:13.196Z,47.20
2022-12-24T03:59:15.774Z,47.20
2022-12-24T04:00:18.799Z,47.20
2022-12-24T04:01:21.288Z,47.20
2022-12-24T04:02:25.575Z,47.20
2022-12-24T04:03:28.196Z,47.20
2022-12-24T04:04:33.484Z,47.20
2022-12-24T04:05:36.312Z,47.10
2022-12-24T04:06:40.004Z,47.20
2022-12-24T04:07:44.289Z,47.10
2022-12-24T04:08:48.177Z,47.10
2022-12-24T04:09:50.638Z,47.10
2022-12-24T04:10:53.057Z,47.20
2022-12-24T04:11:58.598Z,47.10
2022-12-24T04:13:01.091Z,47.00
2022-12-24T04:14:03.957Z,47.10
2022-12-24T04:15:07.254Z,47.10
2022-12-24T04:16:12.144Z,47.00
2022-12-24T04:17:14.611Z,47.00
2022-12-24T04:18:17.211Z,47.00
2022-12-24T04:19:19.676Z,47.00
2022-12-24T04:20:22.151Z,47.00
2022-12-24T04:21:25.270Z,47.50
2022-12-24T04:22:29.174Z,47.00
2022-12-24T04:23:33.428Z,47.00
2022-12-24T04:24:36.287Z,46.90
2022-12-24T04:25:40.111Z,46.90
2022-12-24T04:26:43.212Z,46.90
2022-12-24T04:27:45.987Z,46.90
2022-12-24T04:28:48.695Z,46.90
2022-12-24T04:29:52.602Z,46.90
2022-12-24T04:30:59.888Z,47.00
2022-12-24T04:32:02.512Z,46.90
2022-12-24T04:33:05.087Z,46.80
2022-12-24T04:34:08.719Z,46.90
2022-12-24T04:35:11.252Z,46.80
2022-12-24T04:36:19.964Z,46.80
2022-12-24T04:37:22.902Z,46.80
2022-12-24T04:38:25.662Z,46.80
2022-12-24T04:39:28.150Z,46.80
2022-12-24T04:40:30.618Z,46.80
2022-12-24T04:41:33.417Z,46.80
2022-12-24T04:42:36.154Z,46.80
2022-12-24T04:43:38.589Z,46.80
2022-12-24T04:44:41.071Z,46.70
2022-12-24T04:45:43.930Z,46.70
2022-12-24T04:46:47.582Z,46.70
2022-12-24T04:47:50.106Z,46.70
2022-12-24T04:48:53.843Z,46.70
2022-12-24T04:49:56.377Z,46.70
2022-12-24T04:51:01.903Z,46.60
2022-12-24T04:52:05.756Z,46.60
2022-12-24T04:53:08.169Z,46.70
2022-12-24T04:54:10.877Z,46.70
2022-12-24T04:55:13.387Z,46.60
2022-12-24T04:56:19.081Z,46.60
2022-12-24T04:57:21.673Z,46.60
2022-12-24T04:58:24.462Z,46.60
2022-12-24T04:59:26.881Z,46.60
2022-12-24T05:00:29.286Z,46.50
2022-12-24T05:01:33.263Z,46.50
2022-12-24T05:02:35.996Z,46.50
2022-12-24T05:03:38.674Z,46.50
2022-12-24T05:04:41.279Z,46.50
2022-12-24T05:05:46.050Z,46.50
2022-12-24T05:06:48.785Z,46.50
2022-12-24T05:07:51.295Z,46.40
2022-12-24T05:08:57.897Z,46.50
2022-12-24T05:10:00.359Z,46.40
2022-12-24T05:12:22.261Z,46.40
2022-12-24T05:13:31.859Z,46.50
2022-12-24T05:14:40.384Z,46.40
2022-12-24T05:15:45.104Z,46.40
2022-12-24T05:16:47.998Z,46.40
2022-12-24T05:17:50.613Z,46.30
2022-12-24T05:18:53.486Z,46.30
2022-12-24T05:19:59.899Z,46.30
2022-12-24T05:21:02.694Z,46.30
2022-12-24T05:22:23.633Z,46.30
2022-12-24T05:23:45.509Z,46.30
2022-12-24T05:25:06.298Z,46.30
2022-12-24T05:26:30.402Z,46.30
2022-12-24T05:27:34.145Z,46.30
2022-12-24T05:28:37.639Z,46.80
2022-12-24T05:29:40.047Z,46.20
2022-12-24T05:30:42.663Z,46.20
2022-12-24T05:31:45.759Z,46.10
2022-12-24T05:32:49.503Z,46.10
2022-12-24T05:33:54.755Z,46.20
2022-12-24T05:34:57.651Z,46.10
2022-12-24T05:36:00.600Z,46.20
2022-12-24T05:37:03.046Z,46.10
2022-12-24T05:38:05.509Z,46.10
2022-12-24T05:39:13.461Z,46.10
2022-12-24T05:40:18.160Z,46.10
2022-12-24T05:41:20.982Z,46.10
2022-12-24T05:42:23.762Z,46.10
2022-12-24T05:43:26.784Z,46.10
2022-12-24T05:44:29.294Z,46.00
2022-12-24T05:45:32.046Z,46.00
2022-12-24T05:46:34.535Z,46.00
2022-12-24T05:47:42.830Z,46.00
2022-12-24T05:48:46.540Z,46.00
2022-12-24T05:49:49.438Z,46.00
2022-12-24T05:50:52.078Z,46.00
2022-12-24T05:51:54.837Z,46.00
2022-12-24T05:52:57.289Z,46.00
2022-12-24T05:54:00.597Z,45.90
2022-12-24T05:55:03.285Z,45.90
2022-12-24T05:56:09.309Z,46.00
2022-12-24T05:57:13.314Z,45.90
2022-12-24T05:58:15.986Z,45.90
2022-12-24T05:59:19.799Z,45.90
2022-12-24T06:00:41.413Z,45.90
2022-12-24T06:01:47.265Z,45.90
2022-12-24T06:02:52.870Z,45.80
2022-12-24T06:03:56.844Z,45.90
2022-12-24T06:04:59.370Z,45.80
2022-12-24T06:06:08.004Z,45.80
2022-12-24T06:07:10.487Z,45.80
2022-12-24T06:08:13.352Z,45.80
2022-12-24T06:09:17.026Z,45.80
2022-12-24T06:10:19.615Z,45.80
2022-12-24T06:11:25.743Z,45.80
2022-12-24T06:12:29.507Z,45.70
2022-12-24T06:13:32.559Z,46.30
2022-12-24T06:14:36.107Z,45.70
2022-12-24T06:15:38.981Z,45.80
2022-12-24T06:16:41.628Z,45.80
2022-12-24T06:17:44.070Z,45.80
2022-12-24T06:18:46.606Z,45.80
2022-12-24T06:19:50.276Z,45.70
2022-12-24T06:20:57.986Z,45.70
2022-12-24T06:22:00.807Z,45.70
2022-12-24T06:23:03.636Z,45.80
2022-12-24T06:24:06.534Z,45.70
2022-12-24T06:25:10.469Z,45.80
2022-12-24T06:26:16.038Z,45.70
2022-12-24T06:27:19.357Z,45.70
2022-12-24T06:28:21.849Z,45.70
2022-12-24T06:29:27.605Z,46.30
2022-12-24T06:30:30.424Z,45.70
2022-12-24T06:31:33.024Z,45.70
2022-12-24T06:32:35.605Z,45.70
2022-12-24T06:33:38.326Z,45.70
2022-12-24T06:34:41.298Z,45.70
2022-12-24T06:35:46.163Z,45.60
2022-12-24T06:36:48.615Z,45.60
2022-12-24T06:37:51.481Z,45.60
2022-12-24T06:38:54.937Z,45.60
2022-12-24T06:39:58.883Z,45.60
2022-12-24T06:41:06.344Z,45.60
2022-12-24T06:42:09.554Z,45.60
2022-12-24T06:43:13.180Z,45.60
2022-12-24T06:44:15.655Z,45.60
2022-12-24T06:45:18.450Z,45.60
2022-12-24T06:46:21.613Z,45.60
2022-12-24T06:47:24.228Z,45.60
2022-12-24T06:48:27.134Z,45.60
2022-12-24T06:49:29.642Z,45.60
2022-12-24T06:50:34.139Z,45.60
2022-12-24T06:51:38.406Z,45.60
2022-12-24T06:52:40.850Z,45.60
2022-12-24T06:53:44.343Z,45.60
2022-12-24T06:54:46.985Z,45.50
2022-12-24T06:55:49.455Z,45.60
2022-12-24T06:56:53.245Z,45.50
2022-12-24T06:57:56.422Z,45.60
2022-12-24T06:59:04.822Z,45.50
2022-12-24T07:00:12.528Z,45.50
2022-12-24T07:01:18.569Z,45.50
2022-12-24T07:02:22.113Z,45.60
2022-12-24T07:03:24.815Z,45.50
2022-12-24T07:04:27.429Z,45.60
2022-12-24T07:05:30.205Z,45.50
2022-12-24T07:06:35.439Z,45.50
2022-12-24T07:07:39.472Z,45.50
2022-12-24T07:08:42.269Z,45.50
2022-12-24T07:09:45.140Z,45.50
2022-12-24T07:10:54.131Z,45.50
2022-12-24T07:11:57.695Z,45.50
2022-12-24T07:13:00.569Z,45.50
2022-12-24T07:14:03.033Z,45.50
2022-12-24T07:15:06.852Z,45.50
2022-12-24T07:16:10.581Z,45.40
2022-12-24T07:17:13.279Z,45.50
2022-12-24T07:18:17.192Z,45.50
2022-12-24T07:19:20.685Z,45.50
2022-12-24T07:20:23.107Z,45.50
2022-12-24T07:21:25.852Z,45.50
2022-12-24T07:22:28.544Z,45.40
2022-12-24T07:23:31.380Z,45.40
2022-12-24T07:24:33.858Z,45.40
2022-12-24T07:25:36.734Z,45.50
2022-12-24T07:26:39.199Z,45.50
2022-12-24T07:27:41.897Z,45.40
2022-12-24T07:28:47.186Z,45.40
2022-12-24T07:29:49.668Z,45.40
2022-12-24T07:30:52.602Z,45.50
2022-12-24T07:31:55.615Z,45.40
2022-12-24T07:32:58.167Z,45.40
2022-12-24T07:34:00.791Z,45.40
2022-12-24T07:35:03.377Z,45.40
2022-12-24T07:36:08.704Z,45.40
2022-12-24T07:37:11.134Z,45.40
2022-12-24T07:38:14.676Z,45.40
2022-12-24T07:39:17.098Z,45.40
2022-12-24T07:40:20.151Z,45.40
2022-12-24T07:41:24.398Z,45.40
2022-12-24T07:42:26.911Z,45.40
2022-12-24T07:43:30.060Z,45.40
2022-12-24T07:44:34.088Z,46.00
2022-12-24T07:45:37.723Z,45.40
2022-12-24T07:46:41.655Z,45.30
2022-12-24T07:47:44.347Z,45.30
2022-12-24T07:48:46.873Z,45.40
2022-12-24T07:49:50.800Z,45.30
2022-12-24T07:50:53.366Z,45.40
2022-12-24T07:51:56.237Z,45.30
2022-12-24T07:52:58.745Z,45.30
2022-12-24T07:54:01.221Z,45.30
2022-12-24T07:56:21.734Z,45.30
2022-12-24T07:57:25.536Z,45.40
2022-12-24T07:58:28.256Z,45.40
2022-12-24T07:59:31.094Z,45.30
2022-12-24T08:00:34.358Z,45.30
2022-12-24T08:01:37.955Z,45.30
2022-12-24T08:02:40.512Z,45.90
2022-12-24T08:03:43.345Z,45.30
2022-12-24T08:04:46.186Z,45.30
2022-12-24T08:05:49.324Z,45.30
2022-12-24T08:06:52.406Z,45.30
2022-12-24T08:07:55.421Z,45.30
2022-12-24T08:08:58.058Z,45.20
2022-12-24T08:10:00.994Z,45.30
2022-12-24T08:11:05.842Z,45.30
2022-12-24T08:12:14.185Z,45.30
2022-12-24T08:13:17.459Z,45.30
2022-12-24T08:14:20.122Z,45.30
2022-12-24T08:15:24.252Z,45.30
2022-12-24T08:16:26.833Z,45.80
2022-12-24T08:17:32.396Z,45.20
2022-12-24T08:18:35.880Z,45.20
2022-12-24T08:19:38.565Z,45.20
2022-12-24T08:20:41.420Z,45.80
2022-12-24T08:21:43.961Z,45.20
2022-12-24T08:22:46.468Z,45.20
2022-12-24T08:23:48.897Z,45.20
2022-12-24T08:24:51.405Z,45.20
2022-12-24T08:25:54.177Z,45.10
2022-12-24T08:26:56.628Z,45.20
2022-12-24T08:27:59.111Z,45.20
2022-12-24T08:29:02.283Z,45.20
2022-12-24T08:30:06.147Z,45.20
2022-12-24T08:31:09.040Z,45.20
2022-12-24T08:32:11.523Z,45.20
2022-12-24T08:33:14.757Z,45.20
2022-12-24T08:34:17.230Z,45.70
2022-12-24T08:35:20.379Z,45.20
2022-12-24T08:36:22.798Z,45.10
2022-12-24T08:37:26.671Z,45.20
2022-12-24T08:38:31.081Z,45.20
2022-12-24T08:39:33.822Z,45.20
2022-12-24T08:40:37.039Z,45.20
2022-12-24T08:41:40.246Z,45.20
2022-12-24T08:42:42.763Z,45.20
2022-12-24T08:43:45.659Z,45.20
2022-12-24T08:44:48.081Z,45.10
2022-12-24T08:45:52.417Z,45.20
2022-12-24T08:46:56.413Z,45.20
2022-12-24T08:48:02.239Z,45.20
2022-12-24T08:49:04.697Z,45.10
2022-12-24T08:50:08.566Z,45.70
2022-12-24T08:51:12.214Z,45.20
2022-12-24T08:52:14.677Z,45.10
2022-12-24T08:53:17.436Z,45.20
2022-12-24T08:54:23.656Z,45.10
2022-12-24T08:55:26.274Z,45.10
2022-12-24T08:56:29.907Z,45.10
2022-12-24T08:57:34.853Z,45.10
2022-12-24T08:58:37.602Z,45.10
2022-12-24T08:59:40.162Z,45.20
2022-12-24T09:00:42.820Z,45.10
2022-12-24T09:01:45.556Z,45.10
2022-12-24T09:02:48.371Z,45.10
2022-12-24T09:03:51.763Z,45.10
2022-12-24T09:04:54.483Z,45.10
2022-12-24T09:05:56.961Z,45.10
2022-12-24T09:06:59.457Z,45.10
2022-12-24T09:08:02.035Z,45.70
2022-12-24T09:09:05.405Z,45.10
2022-12-24T09:10:08.628Z,45.10
2022-12-24T09:11:16.476Z,45.10
2022-12-24T09:12:19.472Z,45.10
2022-12-24T09:13:23.386Z,45.10
2022-12-24T09:14:25.779Z,45.10
2022-12-24T09:15:29.536Z,45.10
2022-12-24T09:16:32.129Z,45.10
2022-12-24T09:17:38.724Z,45.00
2022-12-24T09:18:41.719Z,45.10
2022-12-24T09:19:45.468Z,45.00
2022-12-24T09:20:52.410Z,45.00
2022-12-24T09:22:00.155Z,45.10
2022-12-24T09:23:03.031Z,45.10
2022-12-24T09:24:06.873Z,45.00
2022-12-24T09:25:10.673Z,45.00
2022-12-24T09:26:19.061Z,45.00
2022-12-24T09:27:21.633Z,45.00
2022-12-24T09:28:24.343Z,45.00
2022-12-24T09:29:27.292Z,45.00
2022-12-24T09:30:30.521Z,45.00
2022-12-24T09:31:33.762Z,45.00
2022-12-24T09:32:36.614Z,45.00
2022-12-24T09:33:41.721Z,45.00
2022-12-24T09:34:44.331Z,45.00
2022-12-24T09:35:48.230Z,45.00
2022-12-24T09:36:51.766Z,45.00
2022-12-24T09:38:03.021Z,45.00
2022-12-24T09:39:06.033Z,44.90
2022-12-24T09:40:21.032Z,45.00
2022-12-24T09:41:39.508Z,44.90
2022-12-24T09:42:54.377Z,45.00
2022-12-24T09:44:08.157Z,44.90
2022-12-24T09:45:18.477Z,44.90
2022-12-24T09:46:30.582Z,45.00
2022-12-24T09:47:56.442Z,44.90
2022-12-24T09:49:04.648Z,45.00
2022-12-24T09:50:32.988Z,44.90
2022-12-24T09:51:43.622Z,44.90
2022-12-24T09:52:47.540Z,45.00
2022-12-24T09:53:53.870Z,44.90
2022-12-24T09:55:23.645Z,44.90
2022-12-24T09:56:38.052Z,44.90
2022-12-24T09:57:41.977Z,44.90
2022-12-24T09:59:07.222Z,44.90
2022-12-24T10:00:22.632Z,44.90
2022-12-24T10:01:25.710Z,44.90
2022-12-24T10:02:28.664Z,44.90
2022-12-24T10:03:32.029Z,44.90
2022-12-24T10:04:34.770Z,44.90
2022-12-24T10:06:01.793Z,44.90
2022-12-24T10:07:42.606Z,44.90
2022-12-24T10:09:03.694Z,44.90
2022-12-24T10:10:33.209Z,44.90
2022-12-24T10:12:01.890Z,44.90
2022-12-24T10:13:19.498Z,44.90
2022-12-24T10:14:48.137Z,44.90
2022-12-24T10:16:04.160Z,44.90
2022-12-24T10:17:22.183Z,44.90
2022-12-24T10:18:51.913Z,44.90
2022-12-24T10:20:34.769Z,44.90
2022-12-24T10:21:58.099Z,45.00
2022-12-24T10:23:03.392Z,44.90
2022-12-24T10:24:29.789Z,44.90
2022-12-24T10:25:46.032Z,44.90
2022-12-24T10:27:04.905Z,44.80
2022-12-24T10:28:15.580Z,44.90
2022-12-24T10:29:28.980Z,44.90
2022-12-24T10:30:32.003Z,44.90
2022-12-24T10:31:39.642Z,44.80
2022-12-24T10:32:42.486Z,44.80
2022-12-24T10:33:51.651Z,44.90
2022-12-24T10:35:08.372Z,44.80
2022-12-24T10:36:18.360Z,44.90
2022-12-24T10:37:26.200Z,44.90
2022-12-24T10:38:28.704Z,44.80
2022-12-24T10:39:31.260Z,44.90
2022-12-24T10:40:46.374Z,44.80
2022-12-24T10:41:54.174Z,44.90
2022-12-24T10:42:56.634Z,44.80
2022-12-24T10:44:00.004Z,44.90
2022-12-24T10:45:05.881Z,44.80
2022-12-24T10:46:21.579Z,44.80
2022-12-24T10:47:25.891Z,44.80
2022-12-24T10:48:37.477Z,44.80
2022-12-24T10:50:14.130Z,44.80
2022-12-24T10:51:59.028Z,44.80
2022-12-24T10:53:14.310Z,44.70
2022-12-24T10:54:26.524Z,44.80
2022-12-24T10:55:31.478Z,44.80
2022-12-24T10:56:44.162Z,44.80
2022-12-24T10:57:56.341Z,44.70
2022-12-24T10:59:06.542Z,44.80
2022-12-24T11:00:22.989Z,44.80
2022-12-24T11:01:46.666Z,44.80
2022-12-24T11:03:05.540Z,44.80
2022-12-24T11:04:23.629Z,44.80
2022-12-24T11:05:33.723Z,44.70
2022-12-24T11:06:53.329Z,44.70
2022-12-24T11:08:05.998Z,44.70
2022-12-24T11:09:22.227Z,44.80
2022-12-24T11:10:25.065Z,44.70
2022-12-24T11:11:34.966Z,44.70
2022-12-24T11:13:05.703Z,44.70
2022-12-24T11:14:16.354Z,44.70
2022-12-24T11:15:29.897Z,44.80
2022-12-24T11:16:35.695Z,44.80
2022-12-24T11:17:41.020Z,44.70
2022-12-24T11:18:51.611Z,44.70
2022-12-24T11:19:55.100Z,44.70
2022-12-24T11:21:00.805Z,44.70
2022-12-24T11:22:07.113Z,44.70
2022-12-24T11:23:17.737Z,44.70
2022-12-24T11:24:29.792Z,44.70
2022-12-24T11:25:34.576Z,44.70
2022-12-24T11:26:37.149Z,44.70
2022-12-24T11:27:49.745Z,44.70
2022-12-24T11:29:04.949Z,44.70
2022-12-24T11:30:17.106Z,44.60
2022-12-24T11:31:23.026Z,44.60
2022-12-24T11:32:25.480Z,44.70
2022-12-24T11:33:29.666Z,44.70
2022-12-24T11:34:32.932Z,44.60
2022-12-24T11:35:45.375Z,44.70
2022-12-24T11:36:47.927Z,44.70
2022-12-24T11:38:18.361Z,44.70
2022-12-24T11:39:24.873Z,45.30
2022-12-24T11:40:35.884Z,44.70
2022-12-24T11:41:42.398Z,44.70
2022-12-24T11:42:44.990Z,44.70
2022-12-24T11:43:50.906Z,44.70
2022-12-24T11:44:57.367Z,44.70
2022-12-24T11:46:22.255Z,44.70
2022-12-24T11:47:39.006Z,44.70
2022-12-24T11:48:41.481Z,44.60
2022-12-24T11:49:43.931Z,44.70
2022-12-24T11:50:56.706Z,44.70
2022-12-24T11:52:16.546Z,44.60
2022-12-24T11:53:28.450Z,44.70
2022-12-24T11:54:37.789Z,44.70
2022-12-24T11:55:50.713Z,44.60
2022-12-24T11:56:57.295Z,44.70
2022-12-24T11:58:25.638Z,44.70
2022-12-24T11:59:40.156Z,44.60
2022-12-24T12:00:45.308Z,44.60
2022-12-24T12:01:50.859Z,44.60
2022-12-24T12:02:55.602Z,44.60
2022-12-24T12:04:04.804Z,44.60
2022-12-24T12:05:19.033Z,44.70
2022-12-24T12:06:30.137Z,44.60
2022-12-24T12:07:36.804Z,44.70
2022-12-24T12:08:42.121Z,44.60
2022-12-24T12:09:56.733Z,44.60
2022-12-24T12:11:00.157Z,44.60
2022-12-24T12:12:15.295Z,44.60
2022-12-24T12:13:34.040Z,44.60
2022-12-24T12:14:51.520Z,44.60
2022-12-24T12:16:12.700Z,44.60
2022-12-24T12:17:33.216Z,44.70
2022-12-24T12:18:40.866Z,44.60
2022-12-24T12:19:49.176Z,44.60
2022-12-24T12:20:56.568Z,44.70
2022-12-24T12:22:00.992Z,44.60
2022-12-24T12:23:16.684Z,45.20
2022-12-24T12:24:32.344Z,44.60
2022-12-24T12:25:58.153Z,44.60
2022-12-24T12:27:21.993Z,44.60
2022-12-24T12:28:49.299Z,44.60
2022-12-24T12:30:02.348Z,44.60
2022-12-24T12:31:16.375Z,44.60
2022-12-24T12:32:31.635Z,44.60
2022-12-24T12:33:39.055Z,44.60
2022-12-24T12:34:55.768Z,44.60
2022-12-24T12:36:01.925Z,44.60
2022-12-24T12:37:16.425Z,44.60
2022-12-24T12:38:29.273Z,44.60
2022-12-24T12:39:32.107Z,44.60
2022-12-24T12:41:00.454Z,44.70
2022-12-24T12:42:21.557Z,44.60
2022-12-24T12:43:48.262Z,44.60
2022-12-24T12:45:14.862Z,44.60
2022-12-24T12:47:04.781Z,44.60
2022-12-24T12:48:29.941Z,44.60
2022-12-24T12:49:47.464Z,44.60
2022-12-24T12:50:58.933Z,44.60
2022-12-24T12:52:20.387Z,44.60
2022-12-24T12:53:37.822Z,44.60
2022-12-24T12:54:53.251Z,44.60
2022-12-24T12:56:31.459Z,44.60
2022-12-24T12:57:37.609Z,44.60
2022-12-24T12:58:46.242Z,44.60
2022-12-24T12:59:53.850Z,45.10
2022-12-24T13:01:05.449Z,44.60
2022-12-24T13:02:45.628Z,44.60
2022-12-24T13:04:44.506Z,44.60
2022-12-24T13:06:13.694Z,44.60
2022-12-24T13:07:40.662Z,44.60
2022-12-24T13:08:53.632Z,44.60
2022-12-24T13:10:23.383Z,44.60
2022-12-24T13:11:37.066Z,44.50
2022-12-24T13:12:59.942Z,44.60
2022-12-24T13:14:17.315Z,44.60
2022-12-24T13:15:25.800Z,44.60
2022-12-24T13:16:31.312Z,44.60
2022-12-24T13:18:07.760Z,44.50
2022-12-24T13:19:38.270Z,44.60
2022-12-24T13:20:48.158Z,44.60
2022-12-24T13:21:54.320Z,44.50
2022-12-24T13:22:57.129Z,44.60
2022-12-24T13:24:28.020Z,44.60
2022-12-24T13:25:43.660Z,44.60
2022-12-24T13:27:14.596Z,44.50
2022-12-24T13:28:22.873Z,44.60
2022-12-24T13:29:40.319Z,44.60
2022-12-24T13:30:42.821Z,44.50
2022-12-24T13:31:46.551Z,44.60
2022-12-24T13:32:51.714Z,44.60
2022-12-24T13:33:59.707Z,44.60
2022-12-24T13:35:22.490Z,44.60
2022-12-24T13:36:25.328Z,44.50
2022-12-24T13:37:27.698Z,44.60
2022-12-24T13:38:48.859Z,44.60
2022-12-24T13:40:07.185Z,44.60
2022-12-24T13:41:37.873Z,44.60
2022-12-24T13:42:59.550Z,44.60
2022-12-24T13:44:13.292Z,44.60
2022-12-24T13:45:34.287Z,44.60
2022-12-24T13:47:00.823Z,44.60
2022-12-24T13:48:16.472Z,44.50
2022-12-24T13:49:34.482Z,44.50
2022-12-24T13:50:43.251Z,44.60
2022-12-24T13:51:50.753Z,44.60
2022-12-24T13:52:55.843Z,44.60
2022-12-24T13:53:59.585Z,44.60
2022-12-24T13:55:07.166Z,44.60
2022-12-24T13:56:18.308Z,44.60
2022-12-24T13:57:40.523Z,44.50
2022-12-24T13:58:47.753Z,44.60
2022-12-24T14:00:17.260Z,44.60
2022-12-24T14:01:34.093Z,44.60
2022-12-24T14:02:44.904Z,44.60
2022-12-24T14:03:51.070Z,44.60
2022-12-24T14:05:00.754Z,44.60
2022-12-24T14:06:08.305Z,44.60
2022-12-24T14:07:11.635Z,44.60
2022-12-24T14:08:29.509Z,44.60
2022-12-24T14:09:33.331Z,44.60
2022-12-24T14:10:56.530Z,44.60
2022-12-24T14:11:58.944Z,44.60
2022-12-24T14:13:01.435Z,44.60
2022-12-24T14:14:03.914Z,44.60
2022-12-24T14:15:43.906Z,44.60
2022-12-24T14:16:50.623Z,44.50
2022-12-24T14:17:53.746Z,44.60
2022-12-24T14:19:04.682Z,44.60
2022-12-24T14:20:09.441Z,44.70
2022-12-24T14:21:18.676Z,44.60
2022-12-24T14:22:36.504Z,44.60
2022-12-24T14:23:47.623Z,44.60
2022-12-24T14:25:13.914Z,44.60
2022-12-24T14:26:21.363Z,44.60
2022-12-24T14:27:48.036Z,44.60
2022-12-24T14:29:24.465Z,45.10
2022-12-24T14:30:29.980Z,44.60
2022-12-24T14:31:32.637Z,44.60
2022-12-24T14:32:38.168Z,44.60
2022-12-24T14:33:40.694Z,44.60
2022-12-24T14:34:43.688Z,44.60
2022-12-24T14:35:47.471Z,44.60
2022-12-24T14:36:54.163Z,44.50
2022-12-24T14:38:21.469Z,44.50
2022-12-24T14:39:37.432Z,44.60